Time;durP1;ratioP1;P1;durP2;ratioP2;P2;SDS_P1;SDS_P2;PMS_P1;PMS_P2;Temp;Humidity;BMP_temperature;BMP_pressure;BME280_temperature;BME280_humidity;BME280_pressure;Samples;Min_cycle;Max_cycle;Signal;HPM_P1;HPM_P2
2020/12/04 00:02:33;;;;;;;6.30;5.67;;;;;;;-0.66;100.00;96997.52;3688533;79;396122;-77
2020/12/04 00:07:38;;;;;;;3.00;2.20;;;;;;;-0.56;100.00;97009.73;3679074;79;396082;-76
2020/12/04 00:12:43;;;;;;;1.87;1.77;;;;;;;-0.52;100.00;97007.84;3680317;79;395038;-77
2020/12/04 00:17:48;;;;;;;1.60;1.50;;;;;;;-0.55;100.00;96999.72;3680307;79;387692;-77
2020/12/04 00:22:54;;;;;;;6.93;1.00;;;;;;;-0.55;100.00;96988.92;3680103;79;394065;-77
2020/12/04 00:28:00;;;;;;;2.10;2.00;;;;;;;-0.52;100.00;96980.05;3680462;79;389778;-76
2020/12/04 00:33:05;;;;;;;5.20;2.50;;;;;;;-0.55;100.00;96984.87;3680089;79;396046;-77
2020/12/04 00:38:10;;;;;;;5.77;3.90;;;;;;;-0.58;100.00;96978.30;3680567;79;396079;-77
2020/12/04 00:43:15;;;;;;;2.17;2.07;;;;;;;-0.58;100.00;96960.75;3745490;78;392113;-77
2020/12/04 00:48:21;;;;;;;1.10;1.00;;;;;;;-0.59;100.00;96959.20;3776870;77;391874;-77
2020/12/04 00:53:26;;;;;;;5.20;3.63;;;;;;;-0.62;100.00;96961.30;3774061;77;396292;-77
2020/12/04 00:58:36;;;;;;;1.20;0.70;;;;;;;-0.63;100.00;96960.34;3765506;76;390887;-77
2020/12/04 01:03:38;;;;;;;2.70;2.50;;;;;;;-0.70;100.00;96950.27;3830802;76;396129;-77
2020/12/04 01:08:43;;;;;;;3.83;3.00;;;;;;;-0.73;100.00;96938.11;3831335;76;396273;-77
2020/12/04 01:13:50;;;;;;;2.20;1.30;;;;;;;-0.74;100.00;96947.34;3804989;76;393947;-77
2020/12/04 01:18:55;;;;;;;1.23;1.13;;;;;;;-0.77;100.00;96935.98;3831219;76;396313;-77
2020/12/04 01:24:00;;;;;;;2.07;1.90;;;;;;;-0.79;100.00;96936.33;3831099;76;394186;-77
2020/12/04 01:29:05;;;;;;;2.07;1.87;;;;;;;-0.81;100.00;96921.09;3831336;76;394050;-77
2020/12/04 01:34:10;;;;;;;2.17;2.00;;;;;;;-0.77;100.00;96917.09;3831542;76;396060;-77
2020/12/04 01:39:15;;;;;;;12.63;2.33;;;;;;;-0.76;100.00;96929.41;3832323;76;395018;-77
2020/12/04 01:44:20;;;;;;;6.20;2.80;;;;;;;-0.73;100.00;96929.42;3773272;76;396295;-77
2020/12/04 01:49:25;;;;;;;3.63;2.33;;;;;;;-0.71;100.00;96914.98;3764349;77;396282;-77
2020/12/04 01:54:33;;;;;;;4.40;3.17;;;;;;;-0.66;100.00;96911.94;3754601;76;396346;-77
2020/12/04 01:59:39;;;;;;;4.27;2.00;;;;;;;-0.58;100.00;96910.02;3733301;78;383783;-77
2020/12/04 02:04:44;;;;;;;1.57;1.47;;;;;;;-0.52;100.00;96897.70;3726706;78;394021;-78
2020/12/04 02:09:52;;;;;;;4.13;3.77;;;;;;;-0.52;100.00;96893.64;3726228;78;396304;-77
2020/12/04 02:14:58;;;;;;;1.13;0.93;;;;;;;-0.47;100.00;96873.81;3727323;78;387697;-77
2020/12/04 02:20:06;;;;;;;1.77;1.27;;;;;;;-0.43;100.00;96857.62;3727218;78;387730;-78
2020/12/04 02:25:11;;;;;;;4.23;3.93;;;;;;;-0.40;100.00;96833.32;3726315;78;396332;-77
2020/12/04 02:30:20;;;;;;;4.30;2.90;;;;;;;-0.39;100.00;96827.36;3726667;78;396133;-77
2020/12/04 02:35:25;;;;;;;2.80;1.57;;;;;;;-0.35;100.00;96815.41;3726467;78;396024;-77
2020/12/04 02:40:30;;;;;;;2.33;1.80;;;;;;;-0.20;100.00;96810.22;3728474;77;396033;-78
2020/12/04 02:45:35;;;;;;;3.23;2.33;;;;;;;-0.26;100.00;96809.06;3774515;78;396131;-78
2020/12/04 02:50:40;;;;;;;1.57;1.47;;;;;;;-0.29;100.00;96798.26;3777295;77;396303;-77
2020/12/04 02:55:46;;;;;;;11.27;2.03;;;;;;;-0.28;100.00;96793.05;3775945;77;395046;-77
2020/12/04 03:00:51;;;;;;;3.10;2.50;;;;;;;-0.28;100.00;96787.06;3766172;77;396275;-78
2020/12/04 03:05:56;;;;;;;2.93;2.83;;;;;;;-0.22;100.00;96794.21;3746622;77;394204;-78
2020/12/04 03:11:02;;;;;;;4.00;2.63;;;;;;;-0.20;100.00;96798.66;3741816;78;396070;-77
2020/12/04 03:16:07;;;;;;;5.57;2.07;;;;;;;-0.19;100.00;96780.70;3738770;77;394196;-77
2020/12/04 03:21:12;;;;;;;11.40;4.07;;;;;;;-0.19;100.00;96791.52;3741441;78;396098;-78
2020/12/04 03:26:17;;;;;;;4.40;2.03;;;;;;;-0.22;100.00;96809.83;3741517;78;396070;-78
2020/12/04 03:31:22;;;;;;;4.13;3.67;;;;;;;-0.22;100.00;96812.53;3741445;78;396075;-78
2020/12/04 03:36:27;;;;;;;3.10;2.30;;;;;;;-0.23;100.00;96808.28;3741592;78;396115;-77
2020/12/04 03:41:32;;;;;;;1.70;1.60;;;;;;;-0.29;100.00;96790.16;3752199;76;396013;-78
2020/12/04 03:46:38;;;;;;;6.70;3.13;;;;;;;-0.30;100.00;96763.70;3819569;76;393992;-77
2020/12/04 03:51:43;;;;;;;5.03;2.33;;;;;;;-0.34;100.00;96756.20;3819843;76;396024;-78
2020/12/04 03:56:49;;;;;;;1.90;1.80;;;;;;;-0.36;100.00;96749.05;3820405;76;391936;-78
2020/12/04 04:01:54;;;;;;;6.90;4.07;;;;;;;-0.39;100.00;96753.86;3764178;76;394205;-78
2020/12/04 04:06:59;;;;;;;2.77;2.57;;;;;;;-0.40;100.00;96752.31;3778516;77;396077;-78
2020/12/04 04:12:04;;;;;;;2.33;1.33;;;;;;;-0.40;100.00;96761.00;3778135;77;394995;-77
2020/12/04 04:17:09;;;;;;;27.87;2.50;;;;;;;-0.40;100.00;96773.91;3778282;77;387692;-77
2020/12/04 04:22:14;;;;;;;2.00;1.90;;;;;;;-0.36;100.00;96772.00;3768696;77;395024;-77
2020/12/04 04:27:19;;;;;;;5.10;3.20;;;;;;;-0.37;100.00;96754.25;3777872;77;396088;-78
2020/12/04 04:32:24;;;;;;;20.50;2.63;;;;;;;-0.35;100.00;96761.97;3777267;77;396346;-76
2020/12/04 04:37:30;;;;;;;1.80;1.33;;;;;;;-0.33;100.00;96755.61;3779048;77;383775;-78
2020/12/04 04:42:35;;;;;;;1.50;1.20;;;;;;;-0.35;100.00;96742.50;3780497;77;391934;-78
2020/12/04 04:47:42;;;;;;;2.77;2.50;;;;;;;-0.37;100.00;96752.91;3786363;77;392156;-77
2020/12/04 04:52:48;;;;;;;8.43;3.27;;;;;;;-0.38;100.00;96739.20;3762506;77;398128;-77
2020/12/04 04:57:53;;;;;;;6.63;2.33;;;;;;;-0.03;100.00;96774.34;3753043;77;396024;-77
2020/12/04 05:02:58;;;;;;;6.47;2.30;;;;;;;-0.09;100.00;96766.44;3775069;76;392892;-77
2020/12/04 05:08:06;;;;;;;5.20;1.77;;;;;;;-0.14;100.00;96757.94;3831495;76;391913;-77
2020/12/04 05:13:12;;;;;;;6.70;2.50;;;;;;;-0.23;100.00;96757.55;3825603;76;395270;-77
2020/12/04 05:18:20;;;;;;;3.03;2.83;;;;;;;-0.30;100.00;96731.30;3831329;76;396090;-77
2020/12/04 05:23:28;;;;;;;2.90;2.53;;;;;;;-0.39;100.00;96724.16;3831428;76;396031;-77
2020/12/04 05:28:35;;;;;;;5.83;3.80;;;;;;;-0.42;100.00;96737.09;3831141;76;396031;-77
2020/12/04 05:33:44;;;;;;;6.60;3.60;;;;;;;-0.32;100.00;96734.95;3831066;76;398123;-77
2020/12/04 05:38:53;;;;;;;4.77;2.30;;;;;;;-0.33;100.00;96754.25;3831999;76;383577;-77
2020/12/04 05:43:59;;;;;;;8.30;2.60;;;;;;;-0.29;100.00;96752.34;3831343;76;398106;-77
2020/12/04 05:49:11;;;;;;;2.90;2.70;;;;;;;-0.26;100.00;96749.64;3830160;76;396074;-77
2020/12/04 05:54:13;;;;;;;4.07;3.13;;;;;;;-0.17;100.00;96775.70;3830800;76;396297;-77
2020/12/04 05:59:21;;;;;;;3.03;1.87;;;;;;;-0.22;100.00;96782.81;3809973;76;393949;-77
2020/12/04 06:04:29;;;;;;;3.60;2.67;;;;;;;-0.22;100.00;96782.05;3749164;78;396183;-76
2020/12/04 06:09:34;;;;;;;4.07;3.63;;;;;;;-0.28;100.00;96762.75;3775535;77;396341;-77
2020/12/04 06:14:40;;;;;;;4.00;2.03;;;;;;;-0.29;100.00;96766.61;3776157;77;396016;-77
2020/12/04 06:19:46;;;;;;;3.10;1.43;;;;;;;-0.32;100.00;96757.91;3775199;77;394051;-77
2020/12/04 06:24:58;;;;;;;2.13;2.03;;;;;;;-0.30;100.00;96784.55;3778083;77;396077;-77
2020/12/04 06:30:09;;;;;;;2.40;2.13;;;;;;;-0.26;100.00;96755.61;3774676;77;396267;-77
2020/12/04 06:35:16;;;;;;;2.30;1.63;;;;;;;-0.24;100.00;96766.80;3767864;78;387747;-76
2020/12/04 06:40:26;;;;;;;9.47;4.47;;;;;;;-0.24;100.00;96762.16;3774589;77;396058;-76
2020/12/04 06:45:48;;;;;;;1.70;1.30;;;;;;;-0.24;100.00;96759.46;3755126;78;389815;-76
2020/12/04 06:50:53;;;;;;;28.27;3.23;;;;;;;-0.20;100.00;96762.95;3705793;78;393987;-75
2020/12/04 06:55:58;;;;;;;1.83;1.73;;;;;;;-0.16;100.00;96767.00;3776117;77;396053;-76
2020/12/04 07:01:03;;;;;;;7.90;4.43;;;;;;;-0.17;100.00;96770.30;3768192;77;392145;-76
2020/12/04 07:06:08;;;;;;;2.60;2.40;;;;;;;-0.14;100.00;96767.40;3759512;77;396316;-77
2020/12/04 07:11:15;;;;;;;2.67;2.20;;;;;;;-0.11;100.00;96753.89;3752438;77;396062;-77
2020/12/04 07:16:20;;;;;;;2.70;2.50;;;;;;;-0.04;100.00;96767.98;3752952;78;394162;-78
2020/12/04 07:21:28;;;;;;;10.33;1.70;;;;;;;-0.03;100.00;96775.70;3753400;78;391946;-76
2020/12/04 07:26:34;;;;;;;3.70;2.90;;;;;;;0.02;100.00;96765.84;3752163;78;396069;-76
2020/12/04 07:31:42;;;;;;;1.37;1.27;;;;;;;0.06;100.00;96757.16;3754592;77;383533;-77
2020/12/04 07:36:54;;;;;;;2.40;2.17;;;;;;;0.12;100.00;96775.29;3754255;77;396131;-77
2020/12/04 07:42:00;;;;;;;2.70;1.90;;;;;;;0.15;100.00;96794.80;3755292;77;396083;-76
2020/12/04 07:47:16;;;;;;;2.93;2.10;;;;;;;0.24;100.00;96780.91;3767125;76;396391;-77
2020/12/04 07:52:24;;;;;;;1.37;1.27;;;;;;;0.29;100.00;96785.91;3770908;77;396033;-77
2020/12/04 07:57:44;;;;;;;7.23;4.30;;;;;;;0.35;100.00;96785.14;3772838;77;398146;-77
2020/12/04 08:02:49;;;;;;;10.10;3.20;;;;;;;0.33;100.00;96772.58;3767020;76;391866;-78
2020/12/04 08:07:55;;;;;;;3.83;2.30;;;;;;;0.36;100.00;96806.17;3758383;76;396294;-77
2020/12/04 08:13:01;;;;;;;3.13;2.07;;;;;;;0.45;100.00;96823.54;3758528;77;396013;-77
2020/12/04 08:18:10;;;;;;;5.90;1.90;;;;;;;0.49;100.00;96820.27;3756255;77;394219;-76
2020/12/04 08:23:16;;;;;;;4.10;3.80;;;;;;;0.50;100.00;96804.80;3754459;76;396101;-77
2020/12/04 08:28:21;;;;;;;2.43;2.23;;;;;;;0.62;100.00;96776.00;3754375;77;396111;-77
2020/12/04 08:33:27;;;;;;;2.37;2.27;;;;;;;0.73;100.00;96772.11;3755818;77;396084;-76
2020/12/04 08:38:32;;;;;;;5.57;2.63;;;;;;;0.83;100.00;96772.07;3756090;77;396323;-76
2020/12/04 08:43:40;;;;;;;6.67;5.43;;;;;;;0.97;100.00;96763.13;3757048;77;396156;-76
2020/12/04 08:48:45;;;;;;;39.43;5.50;;;;;;;0.92;100.00;96762.95;3759511;75;396043;-76
2020/12/04 08:53:50;;;;;;;5.87;2.80;;;;;;;0.97;100.00;96777.42;3738480;78;396037;-76
2020/12/04 08:58:55;;;;;;;2.27;2.07;;;;;;;1.04;100.00;96772.58;3737817;78;396085;-76
2020/12/04 09:04:00;;;;;;;1.77;1.63;;;;;;;1.09;100.00;96758.66;3705610;79;396268;-76
2020/12/04 09:09:05;;;;;;;3.43;3.07;;;;;;;1.14;100.00;96749.52;3706399;79;396051;-76
2020/12/04 09:14:10;;;;;;;3.03;2.37;;;;;;;1.17;100.00;96747.98;3708856;78;396055;-76
2020/12/04 09:19:15;;;;;;;6.20;3.33;;;;;;;1.30;100.00;96764.70;3706712;78;391075;-76
2020/12/04 09:24:20;;;;;;;36.67;3.00;;;;;;;1.56;100.00;96766.89;3707971;78;396059;-77
2020/12/04 09:29:26;;;;;;;9.93;4.23;;;;;;;1.78;100.00;96769.64;3709104;78;396074;-77
2020/12/04 09:34:31;;;;;;;28.73;4.43;;;;;;;1.87;100.00;96748.28;3704100;78;395976;-77
2020/12/04 09:39:36;;;;;;;6.57;2.30;;;;;;;1.89;100.00;96733.19;3704699;78;396079;-77
2020/12/04 09:44:43;;;;;;;4.10;1.60;;;;;;;1.96;100.00;96722.85;3707035;78;396411;-77
2020/12/04 09:49:49;;;;;;;6.17;4.30;;;;;;;2.16;100.00;96708.94;3779885;77;396171;-77
2020/12/04 09:54:56;;;;;;;5.43;1.50;;;;;;;2.40;100.00;96718.18;3780311;77;393984;-77
2020/12/04 10:00:02;;;;;;;3.50;2.30;;;;;;;2.48;100.00;96735.36;3781760;78;396335;-77
2020/12/04 10:05:08;;;;;;;7.33;3.90;;;;;;;2.54;100.00;96726.20;3783219;77;393895;-77
2020/12/04 10:10:14;;;;;;;1.63;1.53;;;;;;;2.73;100.00;96738.58;3761094;78;396068;-77
2020/12/04 10:15:19;;;;;;;3.93;2.97;;;;;;;2.95;99.06;96748.02;3779727;77;396033;-77
2020/12/04 10:20:24;;;;;;;3.73;2.23;;;;;;;3.05;96.72;96748.48;3780104;77;396029;-77
2020/12/04 10:25:29;;;;;;;3.47;2.30;;;;;;;4.09;94.72;96730.67;3779014;77;396298;-77
2020/12/04 10:30:34;;;;;;;2.00;1.90;;;;;;;4.71;84.13;96758.57;3778226;77;396033;-77
2020/12/04 10:35:40;;;;;;;7.17;3.73;;;;;;;4.13;83.85;96753.13;3780979;77;396064;-77
2020/12/04 10:40:45;;;;;;;4.27;3.97;;;;;;;3.77;88.57;96745.17;3779860;77;396296;-77
2020/12/04 10:45:50;;;;;;;5.50;4.13;;;;;;;3.68;90.40;96744.31;3780584;77;389874;-77
2020/12/04 10:50:56;;;;;;;7.10;3.83;;;;;;;3.92;90.92;96715.23;3780839;77;393951;-77
2020/12/04 10:56:01;;;;;;;7.07;5.20;;;;;;;4.57;87.05;96702.42;3781965;77;396029;-77
2020/12/04 11:01:06;;;;;;;3.57;3.30;;;;;;;5.59;81.23;96706.70;3800710;76;396040;-78
2020/12/04 11:06:11;;;;;;;3.37;3.13;;;;;;;5.97;77.76;96690.08;3825239;76;396065;-78
2020/12/04 11:11:20;;;;;;;5.17;3.60;;;;;;;6.01;75.48;96682.56;3799167;76;396025;-78
2020/12/04 11:16:25;;;;;;;2.50;2.20;;;;;;;5.87;74.49;96695.77;3821310;76;394978;-78
2020/12/04 11:21:31;;;;;;;8.30;5.33;;;;;;;5.58;76.91;96679.87;3835764;76;396074;-78
2020/12/04 11:26:36;;;;;;;5.20;3.47;;;;;;;5.41;76.81;96670.73;3836985;76;396052;-79
2020/12/04 11:31:41;;;;;;;4.67;4.40;;;;;;;4.92;78.25;96660.28;3852573;76;396998;-78
2020/12/04 11:36:46;;;;;;;3.53;3.13;;;;;;;4.44;79.70;96672.14;3830470;76;396273;-78
2020/12/04 11:41:52;;;;;;;5.47;3.87;;;;;;;4.35;81.49;96664.54;3814645;76;396060;-78
2020/12/04 11:46:57;;;;;;;2.63;1.93;;;;;;;4.30;82.59;96650.64;3814311;76;395046;-78
2020/12/04 11:52:03;;;;;;;7.53;2.17;;;;;;;4.56;82.64;96651.12;3827405;76;394186;-78
2020/12/04 11:57:08;;;;;;;3.20;3.00;;;;;;;4.53;81.46;96652.70;3814318;76;395034;-78
2020/12/04 12:02:13;;;;;;;9.77;3.20;;;;;;;4.35;81.56;96648.21;3816037;76;398111;-78
2020/12/04 12:07:18;;;;;;;5.27;3.17;;;;;;;4.24;81.75;96654.44;3828855;76;396348;-78
2020/12/04 12:12:23;;;;;;;3.40;3.07;;;;;;;4.21;81.40;96654.50;3814666;76;396356;-78
2020/12/04 12:17:28;;;;;;;3.77;2.10;;;;;;;4.18;81.94;96643.86;3813885;76;397077;-78
2020/12/04 12:22:33;;;;;;;2.23;2.10;;;;;;;4.21;80.51;96656.61;3829214;76;391857;-78
2020/12/04 12:27:38;;;;;;;10.40;2.97;;;;;;;4.26;81.75;96662.17;3814144;76;395295;-78
2020/12/04 12:32:44;;;;;;;3.23;2.93;;;;;;;4.23;82.95;96690.23;3827956;76;396082;-78
2020/12/04 12:37:51;;;;;;;3.63;2.47;;;;;;;4.08;83.46;96696.49;3810342;76;396283;-78
2020/12/04 12:42:56;;;;;;;3.20;2.40;;;;;;;4.01;84.33;96680.30;3791175;76;393962;-78
2020/12/04 12:48:01;;;;;;;1.83;1.60;;;;;;;3.88;83.48;96671.02;3794833;77;393160;-78
2020/12/04 12:53:06;;;;;;;6.97;4.10;;;;;;;3.66;83.62;96665.15;3796666;77;396062;-78
2020/12/04 12:58:11;;;;;;;5.73;5.30;;;;;;;3.56;84.73;96653.06;3795387;77;396068;-77
2020/12/04 13:03:16;;;;;;;14.37;5.40;;;;;;;3.50;84.92;96679.17;3770888;77;398163;-78
2020/12/04 13:08:21;;;;;;;2.40;2.03;;;;;;;3.39;85.10;96631.03;3804732;77;396266;-78
2020/12/04 13:13:26;;;;;;;2.27;1.77;;;;;;;3.35;85.84;96588.19;3804310;77;396233;-78
2020/12/04 13:18:31;;;;;;;6.13;3.47;;;;;;;3.24;87.04;96628.32;3805547;77;394057;-77
2020/12/04 13:23:37;;;;;;;3.20;2.90;;;;;;;3.15;87.67;96618.55;3805171;77;396233;-77
2020/12/04 13:28:42;;;;;;;3.93;3.70;;;;;;;3.10;87.62;96652.22;3803533;77;396060;-77
2020/12/04 13:33:47;;;;;;;8.63;3.37;;;;;;;3.07;87.91;96649.70;3803655;77;395270;-77
2020/12/04 13:38:52;;;;;;;5.50;3.07;;;;;;;2.98;87.94;96633.18;3803005;77;394183;-76
2020/12/04 13:43:57;;;;;;;2.70;1.63;;;;;;;3.01;88.88;96636.41;3802399;77;396305;-77
2020/12/04 13:49:04;;;;;;;10.63;3.47;;;;;;;3.01;88.98;96625.55;3801492;77;394024;-77
2020/12/04 13:54:09;;;;;;;6.03;2.80;;;;;;;3.05;88.81;96620.86;3796225;77;396275;-76
2020/12/04 13:59:14;;;;;;;23.60;4.33;;;;;;;2.99;90.05;96629.86;3807902;76;396302;-76
2020/12/04 14:04:19;;;;;;;3.30;2.50;;;;;;;2.96;90.44;96632.81;3815226;76;396102;-76
2020/12/04 14:09:25;;;;;;;5.57;2.93;;;;;;;2.96;90.68;96619.23;3794616;76;396074;-76
2020/12/04 14:14:30;;;;;;;4.40;2.33;;;;;;;2.89;91.06;96620.69;3764535;76;386658;-76
2020/12/04 14:19:35;;;;;;;20.40;2.37;;;;;;;2.88;91.51;96647.66;3739277;77;396302;-76
2020/12/04 14:24:40;;;;;;;25.73;4.07;;;;;;;2.90;92.24;96637.16;3764549;76;392104;-76
2020/12/04 14:29:46;;;;;;;5.00;3.27;;;;;;;2.89;91.59;96611.77;3754043;78;387696;-77
2020/12/04 14:34:51;;;;;;;2.27;2.07;;;;;;;2.83;92.38;96624.27;3766556;77;396097;-76
2020/12/04 14:40:26;;;;;;;3.73;3.53;;;;;;;2.67;91.85;96608.55;3753882;76;396150;-77
2020/12/04 14:45:03;;;;;;;2.13;1.83;;;;;;;2.69;92.78;96619.78;3759089;77;395203;-76
2020/12/04 14:50:08;;;;;;;3.80;3.23;;;;;;;2.56;93.86;96632.93;3794254;76;396059;-76
2020/12/04 14:55:13;;;;;;;20.43;4.80;;;;;;;2.42;95.13;96644.71;3823339;76;396063;-77
2020/12/04 15:00:18;;;;;;;5.70;1.87;;;;;;;2.36;95.69;96627.34;3785148;76;393943;-77
2020/12/04 15:05:23;;;;;;;5.53;5.00;;;;;;;2.31;95.88;96620.84;3756380;78;385851;-78
2020/12/04 15:10:29;;;;;;;5.57;5.07;;;;;;;2.27;96.98;96621.45;3775831;77;396288;-76
2020/12/04 15:15:34;;;;;;;2.93;2.50;;;;;;;2.19;98.09;96622.70;3772755;77;396308;-77
2020/12/04 15:20:39;;;;;;;7.00;1.67;;;;;;;2.12;98.71;96621.42;3775200;77;394240;-76
2020/12/04 15:25:44;;;;;;;3.13;2.47;;;;;;;2.05;99.57;96609.30;3775500;77;396066;-76
2020/12/04 15:30:50;;;;;;;9.70;3.37;;;;;;;2.09;99.81;96613.52;3767547;78;396068;-76
2020/12/04 15:35:55;;;;;;;9.27;3.30;;;;;;;1.91;100.00;96648.76;3776009;77;396275;-76
2020/12/04 15:41:01;;;;;;;5.77;2.40;;;;;;;1.85;100.00;96642.23;3766055;77;396108;-76
2020/12/04 15:46:06;;;;;;;5.60;3.53;;;;;;;1.73;100.00;96658.98;3774431;77;396066;-76
2020/12/04 15:51:11;;;;;;;4.80;1.97;;;;;;;1.63;100.00;96647.64;3742587;77;396092;-77
2020/12/04 15:56:16;;;;;;;4.97;2.43;;;;;;;1.53;100.00;96626.84;3720717;78;389777;-77
2020/12/04 16:01:21;;;;;;;4.33;3.20;;;;;;;1.41;100.00;96636.03;3775088;77;396603;-78
2020/12/04 16:06:29;;;;;;;3.40;3.13;;;;;;;1.40;100.00;96637.95;3764567;76;396033;-77
2020/12/04 16:11:35;;;;;;;2.10;1.90;;;;;;;1.32;100.00;96639.77;3763898;77;396244;-77
2020/12/04 16:16:42;;;;;;;10.93;2.53;;;;;;;1.36;100.00;96644.56;3786804;76;394021;-77
2020/12/04 16:21:51;;;;;;;3.53;1.50;;;;;;;1.43;100.00;96652.64;3767250;77;396084;-77
2020/12/04 16:26:56;;;;;;;4.47;3.67;;;;;;;1.58;100.00;96676.52;3762026;77;396029;-76
2020/12/04 16:32:01;;;;;;;2.13;1.80;;;;;;;1.52;100.00;96670.56;3755594;77;396077;-77
2020/12/04 16:37:11;;;;;;;4.13;3.50;;;;;;;1.42;100.00;96695.78;3761310;76;396080;-78
2020/12/04 16:42:19;;;;;;;4.03;2.53;;;;;;;1.48;100.00;96682.78;3760985;77;395229;-77
2020/12/04 16:47:22;;;;;;;5.67;3.70;;;;;;;1.51;100.00;96683.34;3753435;77;396121;-77
2020/12/04 16:52:28;;;;;;;2.30;2.20;;;;;;;1.46;100.00;96693.83;3811106;76;396113;-78
2020/12/04 16:57:33;;;;;;;9.43;3.27;;;;;;;1.45;100.00;96690.37;3832123;76;392899;-77
2020/12/04 17:02:38;;;;;;;4.50;2.77;;;;;;;1.55;100.00;96690.85;3757559;77;396257;-78
2020/12/04 17:07:43;;;;;;;14.57;8.13;;;;;;;1.43;100.00;96689.20;3775318;78;396025;-78
2020/12/04 17:12:51;;;;;;;5.43;3.40;;;;;;;1.34;100.00;96674.77;3777311;77;391904;-78
2020/12/04 17:17:55;;;;;;;5.07;2.57;;;;;;;1.28;100.00;96670.94;3758282;78;396081;-78
2020/12/04 17:23:00;;;;;;;5.20;2.60;;;;;;;1.27;100.00;96667.25;3778823;77;396092;-78
2020/12/04 17:28:05;;;;;;;8.00;1.90;;;;;;;1.27;100.00;96683.50;3758201;78;394243;-78
2020/12/04 17:33:10;;;;;;;1.93;1.70;;;;;;;1.17;100.00;96691.89;3778800;77;396279;-78
2020/12/04 17:38:15;;;;;;;16.70;3.23;;;;;;;1.08;100.00;96706.44;3777209;77;388737;-78
2020/12/04 17:43:20;;;;;;;7.33;3.00;;;;;;;1.05;100.00;96709.16;3778295;77;396069;-78
2020/12/04 17:48:26;;;;;;;2.63;2.43;;;;;;;0.99;100.00;96702.03;3776521;77;396081;-77
2020/12/04 17:53:32;;;;;;;3.13;2.80;;;;;;;0.97;100.00;96715.17;3776699;77;396037;-77
2020/12/04 17:58:37;;;;;;;4.40;3.60;;;;;;;0.91;100.00;96699.17;3775404;77;396271;-77
2020/12/04 18:03:43;;;;;;;4.30;3.43;;;;;;;0.87;100.00;96690.31;3753977;77;396062;-77
2020/12/04 18:08:48;;;;;;;2.90;2.53;;;;;;;0.81;100.00;96689.75;3753900;77;396079;-77
2020/12/04 18:13:54;;;;;;;1.87;1.77;;;;;;;0.76;100.00;96674.51;3753693;77;396065;-77
2020/12/04 18:18:59;;;;;;;5.53;3.80;;;;;;;0.69;100.00;96696.94;3753879;77;394032;-77
2020/12/04 18:24:04;;;;;;;2.80;2.70;;;;;;;0.59;100.00;96688.31;3753445;77;396190;-78
2020/12/04 18:29:09;;;;;;;4.30;3.07;;;;;;;0.55;100.00;96677.31;3760574;77;396025;-77
2020/12/04 18:34:15;;;;;;;2.60;2.23;;;;;;;0.51;100.00;96678.68;3753164;77;396286;-77
2020/12/04 18:39:20;;;;;;;3.30;3.10;;;;;;;0.50;100.00;96673.08;3753189;77;396084;-78
2020/12/04 18:44:25;;;;;;;6.93;2.90;;;;;;;0.51;100.00;96660.31;3753733;77;396138;-78
2020/12/04 18:49:30;;;;;;;7.00;5.53;;;;;;;0.46;100.00;96661.48;3753635;77;396060;-77
2020/12/04 18:54:38;;;;;;;3.07;2.77;;;;;;;0.48;100.00;96657.82;3767049;76;396073;-78
2020/12/04 18:59:42;;;;;;;3.53;2.23;;;;;;;0.45;100.00;96649.72;3740613;77;393290;-78
2020/12/04 19:04:47;;;;;;;5.63;3.83;;;;;;;0.47;100.00;96686.61;3726170;77;396089;-78
2020/12/04 19:09:52;;;;;;;8.13;6.20;;;;;;;0.41;100.00;96674.64;3726435;78;396066;-78
2020/12/04 19:14:58;;;;;;;10.03;4.90;;;;;;;0.36;100.00;96689.92;3668842;79;396038;-77
2020/12/04 19:20:04;;;;;;;3.17;2.97;;;;;;;0.33;100.00;96702.85;3725733;78;396093;-78
2020/12/04 19:25:10;;;;;;;4.50;4.10;;;;;;;0.35;100.00;96682.97;3764136;76;396031;-77
2020/12/04 19:30:15;;;;;;;10.63;4.40;;;;;;;0.33;100.00;96678.52;3669344;79;393947;-77
2020/12/04 19:35:20;;;;;;;2.13;2.03;;;;;;;0.33;100.00;96682.02;3736248;77;396028;-77
2020/12/04 19:40:26;;;;;;;1.00;0.77;;;;;;;0.44;100.00;96692.23;3722513;77;383804;-77
2020/12/04 19:45:31;;;;;;;5.87;2.60;;;;;;;0.48;100.00;96713.25;3693991;78;396074;-78
2020/12/04 19:50:37;;;;;;;12.37;3.63;;;;;;;0.37;100.00;96696.28;3691980;78;396084;-78
2020/12/04 19:55:42;;;;;;;11.67;3.73;;;;;;;0.19;100.00;96693.44;3675468;79;396145;-78
2020/12/04 20:00:47;;;;;;;10.67;4.40;;;;;;;0.12;100.00;96693.45;3680230;79;396301;-77
2020/12/04 20:05:52;;;;;;;2.20;2.10;;;;;;;0.07;100.00;96691.91;3712255;79;396066;-78
2020/12/04 20:10:58;;;;;;;4.63;2.10;;;;;;;0.16;100.00;96679.36;3712472;79;396084;-78
2020/12/04 20:16:03;;;;;;;3.10;2.90;;;;;;;0.15;100.00;96676.47;3705714;79;396224;-78
2020/12/04 20:21:08;;;;;;;3.20;2.90;;;;;;;0.09;100.00;96717.19;3685421;79;396030;-77
2020/12/04 20:26:13;;;;;;;9.93;3.20;;;;;;;-0.05;100.00;96691.55;3712307;78;393289;-78
2020/12/04 20:31:18;;;;;;;5.20;2.37;;;;;;;0.14;100.00;96715.46;3704534;79;396101;-78
2020/12/04 20:36:23;;;;;;;6.40;3.37;;;;;;;-0.01;100.00;96720.70;3711837;79;394295;-77
2020/12/04 20:41:29;;;;;;;3.77;3.33;;;;;;;-0.14;100.00;96700.62;3705174;78;396359;-76
2020/12/04 20:46:34;;;;;;;3.50;2.10;;;;;;;-0.17;100.00;96686.55;3704903;78;396129;-78
2020/12/04 20:51:39;;;;;;;2.37;2.17;;;;;;;-0.22;100.00;96678.83;3726479;76;396130;-79
2020/12/04 20:56:44;;;;;;;1.83;1.60;;;;;;;-0.25;100.00;96643.16;3771864;76;396084;-79
2020/12/04 21:01:49;;;;;;;4.20;4.00;;;;;;;-0.29;100.00;96631.57;3781503;76;396095;-79
2020/12/04 21:06:55;;;;;;;0.87;0.67;;;;;;;-0.36;100.00;96649.70;3743781;78;383823;-78
2020/12/04 21:12:00;;;;;;;6.57;2.77;;;;;;;-0.36;100.00;96678.84;3680450;79;393992;-78
2020/12/04 21:17:05;;;;;;;4.47;2.83;;;;;;;-0.49;100.00;96689.05;3692302;77;396323;-78
2020/12/04 21:22:10;;;;;;;3.00;2.80;;;;;;;-0.51;100.00;96729.16;3820385;76;396291;-78
2020/12/04 21:27:16;;;;;;;1.90;1.53;;;;;;;-0.56;100.00;96708.71;3750439;76;395041;-78
2020/12/04 21:32:21;;;;;;;7.13;3.40;;;;;;;-0.60;100.00;96717.40;3709401;79;394217;-77
2020/12/04 21:37:26;;;;;;;1.97;1.87;;;;;;;-0.44;100.00;96717.80;3804088;76;396311;-78
2020/12/04 21:42:31;;;;;;;3.30;2.53;;;;;;;-0.27;100.00;96704.88;3842378;76;391899;-77
2020/12/04 21:47:37;;;;;;;4.63;2.50;;;;;;;-0.45;100.00;96686.55;3842234;76;396130;-78
2020/12/04 21:52:42;;;;;;;5.50;3.43;;;;;;;-0.55;100.00;96693.30;3842021;76;396298;-77
2020/12/04 21:57:47;;;;;;;3.03;2.60;;;;;;;-0.57;100.00;96722.60;3830512;76;396332;-78
2020/12/04 22:02:52;;;;;;;4.00;2.93;;;;;;;-0.60;100.00;96718.75;3773278;77;396084;-78
2020/12/04 22:07:57;;;;;;;6.50;3.47;;;;;;;-0.54;100.00;96716.45;3770867;76;396149;-78
2020/12/04 22:13:02;;;;;;;2.77;2.00;;;;;;;-0.50;100.00;96716.64;3831758;76;396302;-77
2020/12/04 22:18:07;;;;;;;12.23;1.20;;;;;;;-0.55;100.00;96696.77;3832399;76;392908;-78
2020/12/04 22:23:12;;;;;;;2.40;2.20;;;;;;;-0.50;100.00;96699.66;3831906;76;395030;-78
2020/12/04 22:28:17;;;;;;;1.10;1.00;;;;;;;-0.42;100.00;96681.73;3832657;76;387703;-80
2020/12/04 22:33:22;;;;;;;2.50;1.10;;;;;;;-0.29;100.00;96660.52;3832302;76;394194;-78
2020/12/04 22:38:27;;;;;;;2.97;2.00;;;;;;;-0.29;100.00;96689.64;3831464;76;396381;-78
2020/12/04 22:43:33;;;;;;;7.33;4.80;;;;;;;-0.33;100.00;96678.08;3832030;76;396072;-78
2020/12/04 22:48:38;;;;;;;5.30;3.13;;;;;;;-0.34;100.00;96681.14;3831526;76;396126;-79
2020/12/04 22:53:44;;;;;;;1.53;1.43;;;;;;;-0.34;100.00;96686.55;3839289;76;396335;-78
2020/12/04 22:58:49;;;;;;;6.83;3.63;;;;;;;-0.31;100.00;96683.84;3859994;76;386689;-78
2020/12/04 23:03:55;;;;;;;10.53;3.70;;;;;;;-0.32;100.00;96685.00;3826356;76;396094;-79
2020/12/04 23:09:00;;;;;;;6.40;1.50;;;;;;;-0.24;100.00;96679.78;3826336;76;394046;-78
2020/12/04 23:14:06;;;;;;;6.07;1.40;;;;;;;-0.08;100.00;96672.64;3855140;76;393956;-78
2020/12/04 23:19:14;;;;;;;3.37;2.10;;;;;;;0.07;100.00;96689.21;3854931;76;396073;-78
2020/12/04 23:24:17;;;;;;;17.63;2.73;;;;;;;0.07;100.00;96683.05;3750479;77;396070;-78
2020/12/04 23:29:22;;;;;;;1.90;1.80;;;;;;;0.00;100.00;96687.12;3827011;76;396276;-78
2020/12/04 23:34:28;;;;;;;3.60;1.90;;;;;;;0.00;100.00;96693.87;3855108;76;393993;-78